sensor_id;sensor_type;location;lat;lon;timestamp;P1;durP1;ratioP1;P2;durP2;ratioP2
33138;SDS011;19501;50.948;5.316;2023-12-20T00:01:32;0.40;;;0.40;;
33138;SDS011;19501;50.948;5.316;2023-12-20T00:04:01;0.40;;;0.40;;
33138;SDS011;19501;50.948;5.316;2023-12-20T00:06:27;0.40;;;0.40;;
33138;SDS011;19501;50.948;5.316;2023-12-20T00:08:53;0.40;;;0.40;;
33138;SDS011;19501;50.948;5.316;2023-12-20T00:11:18;0.40;;;0.40;;
33138;SDS011;19501;50.948;5.316;2023-12-20T00:13:44;0.40;;;0.40;;
33138;SDS011;19501;50.948;5.316;2023-12-20T00:16:10;4.28;;;3.88;;
33138;SDS011;19501;50.948;5.316;2023-12-20T00:18:35;0.40;;;0.40;;
33138;SDS011;19501;50.948;5.316;2023-12-20T00:21:01;0.95;;;0.95;;
33138;SDS011;19501;50.948;5.316;2023-12-20T00:23:26;0.40;;;0.40;;
33138;SDS011;19501;50.948;5.316;2023-12-20T00:25:52;0.40;;;0.40;;
33138;SDS011;19501;50.948;5.316;2023-12-20T00:28:20;0.40;;;0.40;;
33138;SDS011;19501;50.948;5.316;2023-12-20T00:30:46;0.40;;;0.40;;
33138;SDS011;19501;50.948;5.316;2023-12-20T00:33:11;0.40;;;0.40;;
33138;SDS011;19501;50.948;5.316;2023-12-20T00:35:37;0.40;;;0.40;;
33138;SDS011;19501;50.948;5.316;2023-12-20T00:38:03;0.40;;;0.40;;
33138;SDS011;19501;50.948;5.316;2023-12-20T00:40:30;0.43;;;0.43;;
33138;SDS011;19501;50.948;5.316;2023-12-20T00:42:55;4.07;;;3.72;;
33138;SDS011;19501;50.948;5.316;2023-12-20T00:45:21;0.40;;;0.40;;
33138;SDS011;19501;50.948;5.316;2023-12-20T00:47:47;0.40;;;0.40;;
33138;SDS011;19501;50.948;5.316;2023-12-20T00:50:12;0.40;;;0.40;;
33138;SDS011;19501;50.948;5.316;2023-12-20T00:52:38;0.40;;;0.40;;
33138;SDS011;19501;50.948;5.316;2023-12-20T00:55:04;0.65;;;0.65;;
33138;SDS011;19501;50.948;5.316;2023-12-20T00:57:30;0.40;;;0.40;;
33138;SDS011;19501;50.948;5.316;2023-12-20T00:59:58;0.30;;;0.30;;
33138;SDS011;19501;50.948;5.316;2023-12-20T01:02:24;0.40;;;0.40;;
33138;SDS011;19501;50.948;5.316;2023-12-20T01:04:49;0.40;;;0.40;;
33138;SDS011;19501;50.948;5.316;2023-12-20T01:07:15;2.70;;;1.30;;
33138;SDS011;19501;50.948;5.316;2023-12-20T01:09:41;0.40;;;0.40;;
33138;SDS011;19501;50.948;5.316;2023-12-20T01:12:06;0.50;;;0.50;;
33138;SDS011;19501;50.948;5.316;2023-12-20T01:14:32;0.40;;;0.40;;
33138;SDS011;19501;50.948;5.316;2023-12-20T01:16:58;0.40;;;0.40;;
33138;SDS011;19501;50.948;5.316;2023-12-20T01:19:24;0.40;;;0.40;;
33138;SDS011;19501;50.948;5.316;2023-12-20T01:21:50;0.40;;;0.40;;
33138;SDS011;19501;50.948;5.316;2023-12-20T01:24:15;0.40;;;0.40;;
33138;SDS011;19501;50.948;5.316;2023-12-20T01:26:41;0.40;;;0.40;;
33138;SDS011;19501;50.948;5.316;2023-12-20T01:29:07;0.50;;;0.50;;
33138;SDS011;19501;50.948;5.316;2023-12-20T01:31:33;0.40;;;0.40;;
33138;SDS011;19501;50.948;5.316;2023-12-20T01:33:58;0.40;;;0.40;;
33138;SDS011;19501;50.948;5.316;2023-12-20T01:36:24;0.30;;;0.30;;
33138;SDS011;19501;50.948;5.316;2023-12-20T01:38:49;0.35;;;0.35;;
33138;SDS011;19501;50.948;5.316;2023-12-20T01:41:15;0.40;;;0.40;;
33138;SDS011;19501;50.948;5.316;2023-12-20T01:43:43;0.40;;;0.40;;
33138;SDS011;19501;50.948;5.316;2023-12-20T01:46:09;0.40;;;0.40;;
33138;SDS011;19501;50.948;5.316;2023-12-20T01:48:35;0.40;;;0.40;;
33138;SDS011;19501;50.948;5.316;2023-12-20T01:51:01;0.40;;;0.40;;
33138;SDS011;19501;50.948;5.316;2023-12-20T01:53:27;0.82;;;0.82;;
33138;SDS011;19501;50.948;5.316;2023-12-20T01:55:54;0.40;;;0.40;;
33138;SDS011;19501;50.948;5.316;2023-12-20T01:58:21;0.30;;;0.30;;
33138;SDS011;19501;50.948;5.316;2023-12-20T02:00:48;0.40;;;0.40;;
33138;SDS011;19501;50.948;5.316;2023-12-20T02:03:14;0.40;;;0.40;;
33138;SDS011;19501;50.948;5.316;2023-12-20T02:05:39;0.40;;;0.40;;
33138;SDS011;19501;50.948;5.316;2023-12-20T02:08:06;0.40;;;0.40;;
33138;SDS011;19501;50.948;5.316;2023-12-20T02:10:32;0.43;;;0.43;;
33138;SDS011;19501;50.948;5.316;2023-12-20T02:12:57;0.40;;;0.40;;
33138;SDS011;19501;50.948;5.316;2023-12-20T02:15:23;0.50;;;0.50;;
33138;SDS011;19501;50.948;5.316;2023-12-20T02:17:49;0.40;;;0.40;;
33138;SDS011;19501;50.948;5.316;2023-12-20T02:20:15;0.40;;;0.40;;
33138;SDS011;19501;50.948;5.316;2023-12-20T02:22:41;0.40;;;0.40;;
33138;SDS011;19501;50.948;5.316;2023-12-20T02:25:07;0.40;;;0.40;;
33138;SDS011;19501;50.948;5.316;2023-12-20T02:27:35;0.40;;;0.40;;
33138;SDS011;19501;50.948;5.316;2023-12-20T02:30:01;0.40;;;0.40;;
33138;SDS011;19501;50.948;5.316;2023-12-20T02:32:26;0.40;;;0.40;;
33138;SDS011;19501;50.948;5.316;2023-12-20T02:34:54;0.40;;;0.40;;
33138;SDS011;19501;50.948;5.316;2023-12-20T02:37:20;0.40;;;0.40;;
33138;SDS011;19501;50.948;5.316;2023-12-20T02:39:46;6.07;;;5.00;;
33138;SDS011;19501;50.948;5.316;2023-12-20T02:42:14;0.40;;;0.40;;
33138;SDS011;19501;50.948;5.316;2023-12-20T02:44:39;0.45;;;0.45;;
33138;SDS011;19501;50.948;5.316;2023-12-20T02:47:05;0.40;;;0.40;;
33138;SDS011;19501;50.948;5.316;2023-12-20T02:49:31;0.30;;;0.30;;
33138;SDS011;19501;50.948;5.316;2023-12-20T02:51:57;0.40;;;0.40;;
33138;SDS011;19501;50.948;5.316;2023-12-20T02:54:22;0.40;;;0.40;;
33138;SDS011;19501;50.948;5.316;2023-12-20T02:56:48;0.40;;;0.40;;
33138;SDS011;19501;50.948;5.316;2023-12-20T02:59:13;1.10;;;1.10;;
33138;SDS011;19501;50.948;5.316;2023-12-20T03:01:43;1.10;;;1.05;;
33138;SDS011;19501;50.948;5.316;2023-12-20T03:04:10;0.40;;;0.40;;
33138;SDS011;19501;50.948;5.316;2023-12-20T03:06:38;0.40;;;0.40;;
33138;SDS011;19501;50.948;5.316;2023-12-20T03:09:04;0.40;;;0.40;;
33138;SDS011;19501;50.948;5.316;2023-12-20T03:11:30;0.40;;;0.40;;
33138;SDS011;19501;50.948;5.316;2023-12-20T03:13:56;0.40;;;0.40;;
33138;SDS011;19501;50.948;5.316;2023-12-20T03:16:22;0.40;;;0.40;;
33138;SDS011;19501;50.948;5.316;2023-12-20T03:18:48;0.40;;;0.40;;
33138;SDS011;19501;50.948;5.316;2023-12-20T03:21:13;0.40;;;0.40;;
33138;SDS011;19501;50.948;5.316;2023-12-20T03:23:39;0.40;;;0.40;;
33138;SDS011;19501;50.948;5.316;2023-12-20T03:26:08;0.40;;;0.40;;
33138;SDS011;19501;50.948;5.316;2023-12-20T03:28:35;0.40;;;0.40;;
33138;SDS011;19501;50.948;5.316;2023-12-20T03:31:01;0.40;;;0.40;;
33138;SDS011;19501;50.948;5.316;2023-12-20T03:33:27;0.40;;;0.40;;
33138;SDS011;19501;50.948;5.316;2023-12-20T03:35:53;0.40;;;0.40;;
33138;SDS011;19501;50.948;5.316;2023-12-20T03:38:20;0.35;;;0.35;;
33138;SDS011;19501;50.948;5.316;2023-12-20T03:40:46;0.38;;;0.38;;
33138;SDS011;19501;50.948;5.316;2023-12-20T03:43:16;0.40;;;0.40;;
33138;SDS011;19501;50.948;5.316;2023-12-20T03:45:42;0.40;;;0.40;;
33138;SDS011;19501;50.948;5.316;2023-12-20T03:48:08;0.40;;;0.40;;
33138;SDS011;19501;50.948;5.316;2023-12-20T03:50:34;0.35;;;0.35;;
33138;SDS011;19501;50.948;5.316;2023-12-20T03:53:00;0.40;;;0.40;;
33138;SDS011;19501;50.948;5.316;2023-12-20T03:55:26;0.52;;;0.52;;
33138;SDS011;19501;50.948;5.316;2023-12-20T03:57:54;2.03;;;1.88;;
33138;SDS011;19501;50.948;5.316;2023-12-20T04:00:20;0.40;;;0.40;;
33138;SDS011;19501;50.948;5.316;2023-12-20T04:02:45;0.40;;;0.40;;
33138;SDS011;19501;50.948;5.316;2023-12-20T04:05:11;0.40;;;0.40;;
33138;SDS011;19501;50.948;5.316;2023-12-20T04:07:37;0.40;;;0.40;;
33138;SDS011;19501;50.948;5.316;2023-12-20T04:10:03;0.88;;;0.88;;
33138;SDS011;19501;50.948;5.316;2023-12-20T04:12:29;0.40;;;0.40;;
33138;SDS011;19501;50.948;5.316;2023-12-20T04:14:58;0.40;;;0.40;;
33138;SDS011;19501;50.948;5.316;2023-12-20T04:17:23;0.40;;;0.40;;
33138;SDS011;19501;50.948;5.316;2023-12-20T04:19:49;0.40;;;0.40;;
33138;SDS011;19501;50.948;5.316;2023-12-20T04:22:16;0.40;;;0.40;;
33138;SDS011;19501;50.948;5.316;2023-12-20T04:24:43;0.40;;;0.40;;
33138;SDS011;19501;50.948;5.316;2023-12-20T04:27:10;0.40;;;0.40;;
33138;SDS011;19501;50.948;5.316;2023-12-20T04:29:36;0.40;;;0.40;;
33138;SDS011;19501;50.948;5.316;2023-12-20T04:32:02;0.40;;;0.40;;
33138;SDS011;19501;50.948;5.316;2023-12-20T04:34:28;0.40;;;0.40;;
33138;SDS011;19501;50.948;5.316;2023-12-20T04:36:54;0.60;;;0.60;;
33138;SDS011;19501;50.948;5.316;2023-12-20T04:39:25;0.40;;;0.40;;
33138;SDS011;19501;50.948;5.316;2023-12-20T04:41:51;0.40;;;0.40;;
33138;SDS011;19501;50.948;5.316;2023-12-20T04:44:16;0.40;;;0.40;;
33138;SDS011;19501;50.948;5.316;2023-12-20T04:46:42;0.47;;;0.47;;
33138;SDS011;19501;50.948;5.316;2023-12-20T04:49:07;0.40;;;0.40;;
33138;SDS011;19501;50.948;5.316;2023-12-20T04:51:33;0.40;;;0.40;;
33138;SDS011;19501;50.948;5.316;2023-12-20T04:53:59;0.60;;;0.60;;
33138;SDS011;19501;50.948;5.316;2023-12-20T04:56:25;0.40;;;0.40;;
33138;SDS011;19501;50.948;5.316;2023-12-20T04:58:51;0.35;;;0.35;;
33138;SDS011;19501;50.948;5.316;2023-12-20T05:01:16;0.40;;;0.40;;
33138;SDS011;19501;50.948;5.316;2023-12-20T05:03:45;0.40;;;0.40;;
33138;SDS011;19501;50.948;5.316;2023-12-20T05:06:11;0.40;;;0.40;;
33138;SDS011;19501;50.948;5.316;2023-12-20T05:08:37;0.40;;;0.40;;
33138;SDS011;19501;50.948;5.316;2023-12-20T05:11:02;0.40;;;0.40;;
33138;SDS011;19501;50.948;5.316;2023-12-20T05:13:29;0.40;;;0.40;;
33138;SDS011;19501;50.948;5.316;2023-12-20T05:15:54;0.40;;;0.40;;
33138;SDS011;19501;50.948;5.316;2023-12-20T05:18:20;0.40;;;0.40;;
33138;SDS011;19501;50.948;5.316;2023-12-20T05:20:48;0.40;;;0.40;;
33138;SDS011;19501;50.948;5.316;2023-12-20T05:23:14;0.40;;;0.40;;
33138;SDS011;19501;50.948;5.316;2023-12-20T05:25:40;0.40;;;0.40;;
33138;SDS011;19501;50.948;5.316;2023-12-20T05:28:05;0.40;;;0.40;;
33138;SDS011;19501;50.948;5.316;2023-12-20T05:30:31;0.45;;;0.45;;
33138;SDS011;19501;50.948;5.316;2023-12-20T05:32:57;0.30;;;0.30;;
33138;SDS011;19501;50.948;5.316;2023-12-20T05:35:22;0.35;;;0.35;;
33138;SDS011;19501;50.948;5.316;2023-12-20T05:37:48;0.40;;;0.40;;
33138;SDS011;19501;50.948;5.316;2023-12-20T05:40:17;0.40;;;0.40;;
33138;SDS011;19501;50.948;5.316;2023-12-20T05:42:42;0.68;;;0.68;;
33138;SDS011;19501;50.948;5.316;2023-12-20T05:45:10;0.40;;;0.40;;
33138;SDS011;19501;50.948;5.316;2023-12-20T05:47:38;0.40;;;0.40;;
33138;SDS011;19501;50.948;5.316;2023-12-20T05:50:04;0.32;;;0.32;;
33138;SDS011;19501;50.948;5.316;2023-12-20T05:52:30;0.40;;;0.40;;
33138;SDS011;19501;50.948;5.316;2023-12-20T05:54:55;0.68;;;0.68;;
33138;SDS011;19501;50.948;5.316;2023-12-20T05:57:26;0.40;;;0.40;;
33138;SDS011;19501;50.948;5.316;2023-12-20T05:59:52;0.55;;;0.50;;
33138;SDS011;19501;50.948;5.316;2023-12-20T06:02:18;0.40;;;0.40;;
33138;SDS011;19501;50.948;5.316;2023-12-20T06:04:44;0.40;;;0.40;;
33138;SDS011;19501;50.948;5.316;2023-12-20T06:07:12;0.40;;;0.40;;
33138;SDS011;19501;50.948;5.316;2023-12-20T06:09:39;1.00;;;0.88;;
33138;SDS011;19501;50.948;5.316;2023-12-20T06:12:05;0.40;;;0.40;;
33138;SDS011;19501;50.948;5.316;2023-12-20T06:14:33;0.40;;;0.40;;
33138;SDS011;19501;50.948;5.316;2023-12-20T06:16:59;0.40;;;0.40;;
33138;SDS011;19501;50.948;5.316;2023-12-20T06:19:27;0.40;;;0.40;;
33138;SDS011;19501;50.948;5.316;2023-12-20T06:21:53;0.40;;;0.40;;
33138;SDS011;19501;50.948;5.316;2023-12-20T06:24:19;0.50;;;0.50;;
33138;SDS011;19501;50.948;5.316;2023-12-20T06:26:45;0.40;;;0.40;;
33138;SDS011;19501;50.948;5.316;2023-12-20T06:29:11;0.40;;;0.40;;
33138;SDS011;19501;50.948;5.316;2023-12-20T06:31:37;0.40;;;0.40;;
33138;SDS011;19501;50.948;5.316;2023-12-20T06:34:03;0.40;;;0.40;;
33138;SDS011;19501;50.948;5.316;2023-12-20T06:36:29;0.40;;;0.40;;
33138;SDS011;19501;50.948;5.316;2023-12-20T06:38:54;0.40;;;0.40;;
33138;SDS011;19501;50.948;5.316;2023-12-20T06:41:20;0.40;;;0.40;;
33138;SDS011;19501;50.948;5.316;2023-12-20T06:43:46;0.47;;;0.47;;
33138;SDS011;19501;50.948;5.316;2023-12-20T06:46:12;0.40;;;0.40;;
33138;SDS011;19501;50.948;5.316;2023-12-20T06:48:38;0.40;;;0.40;;
33138;SDS011;19501;50.948;5.316;2023-12-20T06:51:04;0.40;;;0.40;;
33138;SDS011;19501;50.948;5.316;2023-12-20T06:53:30;0.40;;;0.40;;
33138;SDS011;19501;50.948;5.316;2023-12-20T06:55:56;0.40;;;0.40;;
33138;SDS011;19501;50.948;5.316;2023-12-20T06:58:21;0.40;;;0.40;;
33138;SDS011;19501;50.948;5.316;2023-12-20T07:00:48;0.40;;;0.40;;
33138;SDS011;19501;50.948;5.316;2023-12-20T07:03:14;0.40;;;0.40;;
33138;SDS011;19501;50.948;5.316;2023-12-20T07:05:39;0.40;;;0.40;;
33138;SDS011;19501;50.948;5.316;2023-12-20T07:08:08;0.40;;;0.40;;
33138;SDS011;19501;50.948;5.316;2023-12-20T07:10:33;0.40;;;0.40;;
33138;SDS011;19501;50.948;5.316;2023-12-20T07:12:59;0.40;;;0.40;;
33138;SDS011;19501;50.948;5.316;2023-12-20T07:15:25;0.40;;;0.40;;
33138;SDS011;19501;50.948;5.316;2023-12-20T07:17:51;0.50;;;0.50;;
33138;SDS011;19501;50.948;5.316;2023-12-20T07:20:19;2.05;;;1.13;;
33138;SDS011;19501;50.948;5.316;2023-12-20T07:22:45;0.40;;;0.40;;
33138;SDS011;19501;50.948;5.316;2023-12-20T07:25:10;0.30;;;0.30;;
33138;SDS011;19501;50.948;5.316;2023-12-20T07:27:36;0.60;;;0.60;;
33138;SDS011;19501;50.948;5.316;2023-12-20T07:30:04;0.40;;;0.40;;
33138;SDS011;19501;50.948;5.316;2023-12-20T07:32:30;0.40;;;0.40;;
33138;SDS011;19501;50.948;5.316;2023-12-20T07:34:57;0.40;;;0.40;;
33138;SDS011;19501;50.948;5.316;2023-12-20T07:37:22;0.40;;;0.40;;
33138;SDS011;19501;50.948;5.316;2023-12-20T07:39:48;0.40;;;0.40;;
33138;SDS011;19501;50.948;5.316;2023-12-20T07:42:13;27.77;;;7.13;;
33138;SDS011;19501;50.948;5.316;2023-12-20T07:44:39;33.90;;;7.25;;
33138;SDS011;19501;50.948;5.316;2023-12-20T07:47:05;28.42;;;7.43;;
33138;SDS011;19501;50.948;5.316;2023-12-20T07:49:33;35.60;;;8.25;;
33138;SDS011;19501;50.948;5.316;2023-12-20T07:51:58;34.13;;;7.00;;
33138;SDS011;19501;50.948;5.316;2023-12-20T07:54:24;17.75;;;5.63;;
33138;SDS011;19501;50.948;5.316;2023-12-20T07:56:50;29.65;;;6.40;;
33138;SDS011;19501;50.948;5.316;2023-12-20T07:59:15;27.40;;;6.53;;
33138;SDS011;19501;50.948;5.316;2023-12-20T08:01:43;31.20;;;7.30;;
33138;SDS011;19501;50.948;5.316;2023-12-20T08:04:09;31.30;;;7.38;;
33138;SDS011;19501;50.948;5.316;2023-12-20T08:06:35;34.10;;;7.20;;
33138;SDS011;19501;50.948;5.316;2023-12-20T08:09:00;26.27;;;7.15;;
33138;SDS011;19501;50.948;5.316;2023-12-20T08:11:26;24.88;;;7.25;;
33138;SDS011;19501;50.948;5.316;2023-12-20T08:13:52;30.65;;;7.35;;
33138;SDS011;19501;50.948;5.316;2023-12-20T08:16:17;23.40;;;6.00;;
33138;SDS011;19501;50.948;5.316;2023-12-20T08:18:43;24.27;;;6.63;;
33138;SDS011;19501;50.948;5.316;2023-12-20T08:21:09;30.25;;;6.50;;
33138;SDS011;19501;50.948;5.316;2023-12-20T08:23:35;25.70;;;7.07;;
33138;SDS011;19501;50.948;5.316;2023-12-20T08:26:06;25.08;;;6.43;;
33138;SDS011;19501;50.948;5.316;2023-12-20T08:28:32;26.98;;;7.05;;
33138;SDS011;19501;50.948;5.316;2023-12-20T08:30:59;28.83;;;6.00;;
33138;SDS011;19501;50.948;5.316;2023-12-20T08:33:24;27.00;;;6.60;;
33138;SDS011;19501;50.948;5.316;2023-12-20T08:35:50;28.40;;;6.40;;
33138;SDS011;19501;50.948;5.316;2023-12-20T08:38:16;31.42;;;6.93;;
33138;SDS011;19501;50.948;5.316;2023-12-20T08:40:42;25.55;;;5.22;;
33138;SDS011;19501;50.948;5.316;2023-12-20T08:43:08;25.80;;;5.93;;
33138;SDS011;19501;50.948;5.316;2023-12-20T08:45:34;27.98;;;5.90;;
33138;SDS011;19501;50.948;5.316;2023-12-20T08:48:00;28.08;;;5.32;;
33138;SDS011;19501;50.948;5.316;2023-12-20T08:50:28;33.95;;;6.03;;
33138;SDS011;19501;50.948;5.316;2023-12-20T08:52:54;26.15;;;5.38;;
33138;SDS011;19501;50.948;5.316;2023-12-20T08:55:19;20.73;;;4.63;;
33138;SDS011;19501;50.948;5.316;2023-12-20T08:57:45;24.67;;;5.57;;
33138;SDS011;19501;50.948;5.316;2023-12-20T09:00:11;24.27;;;4.70;;
33138;SDS011;19501;50.948;5.316;2023-12-20T09:02:37;24.83;;;4.80;;
33138;SDS011;19501;50.948;5.316;2023-12-20T09:05:04;21.75;;;4.60;;
33138;SDS011;19501;50.948;5.316;2023-12-20T09:07:29;24.17;;;5.57;;
33138;SDS011;19501;50.948;5.316;2023-12-20T09:09:57;21.17;;;3.63;;
33138;SDS011;19501;50.948;5.316;2023-12-20T09:12:23;27.40;;;5.32;;
33138;SDS011;19501;50.948;5.316;2023-12-20T09:14:50;19.42;;;4.90;;
33138;SDS011;19501;50.948;5.316;2023-12-20T09:17:17;26.02;;;5.05;;
33138;SDS011;19501;50.948;5.316;2023-12-20T09:19:43;31.00;;;5.88;;
33138;SDS011;19501;50.948;5.316;2023-12-20T09:22:10;28.98;;;5.78;;
33138;SDS011;19501;50.948;5.316;2023-12-20T09:24:36;21.35;;;4.53;;
33138;SDS011;19501;50.948;5.316;2023-12-20T09:27:01;30.88;;;5.00;;
33138;SDS011;19501;50.948;5.316;2023-12-20T09:29:27;28.77;;;5.38;;
33138;SDS011;19501;50.948;5.316;2023-12-20T09:31:53;23.77;;;4.95;;
33138;SDS011;19501;50.948;5.316;2023-12-20T09:34:19;21.48;;;4.65;;
33138;SDS011;19501;50.948;5.316;2023-12-20T09:36:45;24.73;;;4.57;;
33138;SDS011;19501;50.948;5.316;2023-12-20T09:39:15;19.38;;;4.53;;
33138;SDS011;19501;50.948;5.316;2023-12-20T09:41:45;25.70;;;4.93;;
33138;SDS011;19501;50.948;5.316;2023-12-20T09:44:35;19.20;;;4.78;;
33138;SDS011;19501;50.948;5.316;2023-12-20T09:47:06;16.40;;;3.63;;
33138;SDS011;19501;50.948;5.316;2023-12-20T09:49:32;19.50;;;4.38;;
33138;SDS011;19501;50.948;5.316;2023-12-20T09:51:58;22.02;;;4.65;;
33138;SDS011;19501;50.948;5.316;2023-12-20T09:54:25;18.75;;;4.07;;
33138;SDS011;19501;50.948;5.316;2023-12-20T09:56:51;17.10;;;4.10;;
33138;SDS011;19501;50.948;5.316;2023-12-20T09:59:17;13.05;;;2.80;;
33138;SDS011;19501;50.948;5.316;2023-12-20T10:01:45;14.95;;;3.90;;
33138;SDS011;19501;50.948;5.316;2023-12-20T10:04:11;19.42;;;3.78;;
33138;SDS011;19501;50.948;5.316;2023-12-20T10:06:41;22.23;;;4.72;;
33138;SDS011;19501;50.948;5.316;2023-12-20T10:09:08;23.88;;;4.43;;
33138;SDS011;19501;50.948;5.316;2023-12-20T10:11:35;25.90;;;4.50;;
33138;SDS011;19501;50.948;5.316;2023-12-20T10:14:02;31.08;;;4.88;;
33138;SDS011;19501;50.948;5.316;2023-12-20T10:16:29;23.95;;;4.55;;
33138;SDS011;19501;50.948;5.316;2023-12-20T10:18:56;17.23;;;3.97;;
33138;SDS011;19501;50.948;5.316;2023-12-20T10:21:26;25.58;;;4.53;;
33138;SDS011;19501;50.948;5.316;2023-12-20T10:23:55;22.20;;;4.47;;
33138;SDS011;19501;50.948;5.316;2023-12-20T10:26:24;22.13;;;4.28;;
33138;SDS011;19501;50.948;5.316;2023-12-20T10:28:55;28.85;;;5.82;;
33138;SDS011;19501;50.948;5.316;2023-12-20T10:33:58;21.35;;;4.18;;
33138;SDS011;19501;50.948;5.316;2023-12-20T10:36:29;21.85;;;4.75;;
33138;SDS011;19501;50.948;5.316;2023-12-20T10:38:56;23.48;;;4.32;;
33138;SDS011;19501;50.948;5.316;2023-12-20T10:41:25;18.02;;;4.10;;
33138;SDS011;19501;50.948;5.316;2023-12-20T10:44:01;21.90;;;5.53;;
33138;SDS011;19501;50.948;5.316;2023-12-20T10:46:30;22.23;;;4.97;;
33138;SDS011;19501;50.948;5.316;2023-12-20T10:48:57;19.10;;;4.10;;
33138;SDS011;19501;50.948;5.316;2023-12-20T10:51:24;25.40;;;5.03;;
33138;SDS011;19501;50.948;5.316;2023-12-20T10:53:52;21.90;;;5.13;;
33138;SDS011;19501;50.948;5.316;2023-12-20T10:56:19;26.13;;;5.28;;
33138;SDS011;19501;50.948;5.316;2023-12-20T10:58:46;21.90;;;4.85;;
33138;SDS011;19501;50.948;5.316;2023-12-20T11:01:13;15.73;;;4.15;;
33138;SDS011;19501;50.948;5.316;2023-12-20T11:03:42;31.55;;;7.38;;
33138;SDS011;19501;50.948;5.316;2023-12-20T11:12:04;21.23;;;4.35;;
33138;SDS011;19501;50.948;5.316;2023-12-20T11:17:17;21.88;;;5.22;;
33138;SDS011;19501;50.948;5.316;2023-12-20T11:22:21;17.63;;;4.40;;
33138;SDS011;19501;50.948;5.316;2023-12-20T11:24:48;14.35;;;4.07;;
33138;SDS011;19501;50.948;5.316;2023-12-20T11:27:15;16.60;;;4.22;;
33138;SDS011;19501;50.948;5.316;2023-12-20T11:29:41;29.65;;;5.10;;
33138;SDS011;19501;50.948;5.316;2023-12-20T11:34:53;17.48;;;4.55;;
33138;SDS011;19501;50.948;5.316;2023-12-20T11:37:21;15.13;;;4.50;;
33138;SDS011;19501;50.948;5.316;2023-12-20T11:39:54;26.63;;;5.22;;
33138;SDS011;19501;50.948;5.316;2023-12-20T11:42:21;22.10;;;4.30;;
33138;SDS011;19501;50.948;5.316;2023-12-20T11:44:47;25.45;;;5.63;;
33138;SDS011;19501;50.948;5.316;2023-12-20T11:47:13;21.10;;;5.32;;
33138;SDS011;19501;50.948;5.316;2023-12-20T11:49:40;25.00;;;4.75;;
33138;SDS011;19501;50.948;5.316;2023-12-20T11:52:06;28.92;;;5.43;;
33138;SDS011;19501;50.948;5.316;2023-12-20T11:54:32;23.30;;;4.90;;
33138;SDS011;19501;50.948;5.316;2023-12-20T11:56:57;21.40;;;4.28;;
33138;SDS011;19501;50.948;5.316;2023-12-20T11:59:25;16.40;;;4.75;;
33138;SDS011;19501;50.948;5.316;2023-12-20T12:01:51;25.33;;;4.57;;
33138;SDS011;19501;50.948;5.316;2023-12-20T12:04:17;27.75;;;6.55;;
33138;SDS011;19501;50.948;5.316;2023-12-20T12:06:47;25.02;;;4.78;;
33138;SDS011;19501;50.948;5.316;2023-12-20T12:09:13;23.80;;;4.88;;
33138;SDS011;19501;50.948;5.316;2023-12-20T12:11:40;19.45;;;4.35;;
33138;SDS011;19501;50.948;5.316;2023-12-20T12:14:06;22.23;;;5.03;;
33138;SDS011;19501;50.948;5.316;2023-12-20T12:16:32;25.92;;;5.95;;
33138;SDS011;19501;50.948;5.316;2023-12-20T12:18:58;27.60;;;5.65;;
33138;SDS011;19501;50.948;5.316;2023-12-20T12:21:24;23.75;;;5.45;;
33138;SDS011;19501;50.948;5.316;2023-12-20T12:23:50;25.15;;;5.90;;
33138;SDS011;19501;50.948;5.316;2023-12-20T12:26:16;24.17;;;5.18;;
33138;SDS011;19501;50.948;5.316;2023-12-20T12:28:42;24.58;;;6.10;;
33138;SDS011;19501;50.948;5.316;2023-12-20T12:31:08;26.77;;;6.13;;
33138;SDS011;19501;50.948;5.316;2023-12-20T12:33:34;24.58;;;5.70;;
33138;SDS011;19501;50.948;5.316;2023-12-20T12:36:03;22.92;;;6.03;;
33138;SDS011;19501;50.948;5.316;2023-12-20T12:38:30;29.92;;;6.60;;
33138;SDS011;19501;50.948;5.316;2023-12-20T12:40:56;25.05;;;6.47;;
33138;SDS011;19501;50.948;5.316;2023-12-20T12:43:22;30.63;;;6.00;;
33138;SDS011;19501;50.948;5.316;2023-12-20T12:45:50;32.28;;;6.28;;
33138;SDS011;19501;50.948;5.316;2023-12-20T12:48:16;31.42;;;6.70;;
33138;SDS011;19501;50.948;5.316;2023-12-20T12:50:41;22.73;;;5.97;;
33138;SDS011;19501;50.948;5.316;2023-12-20T12:53:08;28.35;;;6.47;;
33138;SDS011;19501;50.948;5.316;2023-12-20T12:55:34;35.33;;;7.18;;
33138;SDS011;19501;50.948;5.316;2023-12-20T12:58:00;26.50;;;7.00;;
33138;SDS011;19501;50.948;5.316;2023-12-20T13:00:26;29.35;;;6.63;;
33138;SDS011;19501;50.948;5.316;2023-12-20T13:02:52;28.02;;;6.88;;
33138;SDS011;19501;50.948;5.316;2023-12-20T13:05:18;27.45;;;6.45;;
33138;SDS011;19501;50.948;5.316;2023-12-20T13:07:43;29.65;;;5.95;;
33138;SDS011;19501;50.948;5.316;2023-12-20T13:10:10;25.92;;;7.63;;
33138;SDS011;19501;50.948;5.316;2023-12-20T13:12:41;23.13;;;6.13;;
33138;SDS011;19501;50.948;5.316;2023-12-20T13:15:07;29.65;;;7.82;;
33138;SDS011;19501;50.948;5.316;2023-12-20T13:17:34;24.25;;;7.20;;
33138;SDS011;19501;50.948;5.316;2023-12-20T13:19:59;36.95;;;7.05;;
33138;SDS011;19501;50.948;5.316;2023-12-20T13:22:25;21.48;;;5.68;;
33138;SDS011;19501;50.948;5.316;2023-12-20T13:24:50;28.90;;;5.80;;
33138;SDS011;19501;50.948;5.316;2023-12-20T13:27:16;28.20;;;5.65;;
33138;SDS011;19501;50.948;5.316;2023-12-20T13:29:42;31.23;;;6.97;;
33138;SDS011;19501;50.948;5.316;2023-12-20T13:32:12;33.55;;;6.63;;
33138;SDS011;19501;50.948;5.316;2023-12-20T13:34:38;22.23;;;4.18;;
33138;SDS011;19501;50.948;5.316;2023-12-20T13:37:03;23.05;;;5.32;;
33138;SDS011;19501;50.948;5.316;2023-12-20T13:39:31;20.70;;;5.47;;
33138;SDS011;19501;50.948;5.316;2023-12-20T13:41:57;25.85;;;6.68;;
33138;SDS011;19501;50.948;5.316;2023-12-20T13:44:22;28.27;;;5.72;;
33138;SDS011;19501;50.948;5.316;2023-12-20T13:46:48;26.90;;;5.95;;
33138;SDS011;19501;50.948;5.316;2023-12-20T13:49:15;23.15;;;5.68;;
33138;SDS011;19501;50.948;5.316;2023-12-20T13:51:41;31.02;;;5.25;;
33138;SDS011;19501;50.948;5.316;2023-12-20T13:54:06;24.42;;;5.25;;
33138;SDS011;19501;50.948;5.316;2023-12-20T13:56:32;26.95;;;6.05;;
33138;SDS011;19501;50.948;5.316;2023-12-20T13:59:00;21.15;;;5.47;;
33138;SDS011;19501;50.948;5.316;2023-12-20T14:01:26;27.35;;;6.68;;
33138;SDS011;19501;50.948;5.316;2023-12-20T14:03:54;21.48;;;6.05;;
33138;SDS011;19501;50.948;5.316;2023-12-20T14:06:20;21.27;;;4.82;;
33138;SDS011;19501;50.948;5.316;2023-12-20T14:08:45;25.40;;;5.43;;
33138;SDS011;19501;50.948;5.316;2023-12-20T14:11:11;29.63;;;6.40;;
33138;SDS011;19501;50.948;5.316;2023-12-20T14:13:38;28.80;;;5.90;;
33138;SDS011;19501;50.948;5.316;2023-12-20T14:16:04;17.98;;;5.00;;
33138;SDS011;19501;50.948;5.316;2023-12-20T14:18:30;23.90;;;6.22;;
33138;SDS011;19501;50.948;5.316;2023-12-20T14:20:55;23.38;;;5.28;;
33138;SDS011;19501;50.948;5.316;2023-12-20T14:23:21;28.92;;;7.80;;
33138;SDS011;19501;50.948;5.316;2023-12-20T14:25:48;17.98;;;4.93;;
33138;SDS011;19501;50.948;5.316;2023-12-20T14:28:14;21.02;;;5.97;;
33138;SDS011;19501;50.948;5.316;2023-12-20T14:30:40;23.17;;;5.53;;
33138;SDS011;19501;50.948;5.316;2023-12-20T14:33:05;22.05;;;5.90;;
33138;SDS011;19501;50.948;5.316;2023-12-20T14:35:31;16.92;;;5.40;;
33138;SDS011;19501;50.948;5.316;2023-12-20T14:37:57;25.02;;;6.85;;
33138;SDS011;19501;50.948;5.316;2023-12-20T14:40:23;33.90;;;6.75;;
33138;SDS011;19501;50.948;5.316;2023-12-20T14:42:49;27.85;;;6.85;;
33138;SDS011;19501;50.948;5.316;2023-12-20T14:45:15;22.48;;;6.35;;
33138;SDS011;19501;50.948;5.316;2023-12-20T14:47:41;29.27;;;6.28;;
33138;SDS011;19501;50.948;5.316;2023-12-20T14:50:07;26.45;;;6.90;;
33138;SDS011;19501;50.948;5.316;2023-12-20T14:52:36;22.20;;;6.25;;